Terminal Aerodrome Forecast
Issued by NWS

Home | Current Version | Previous Version | Text Only | Print | Product List | Glossary On
Versions: 1 2 3 4 5 6 7 8 9 10 11 12 13 14 15 16
000
FTUS43 KPAH 291700
TAFCGI
TAF
KCGI 291740Z 2918/3018 02005KT P6SM SKC
     FM292300 00000KT P6SM SKC
     FM300800 00000KT 1/2SM FG VV003
     FM301230 00000KT P6SM SKC=

USA.gov is the U.S. government's official web portal to all federal, state and local government web resources and services.